Alabama A and M, Alabama
Current Conditions -  °F | °C
As of 4:15 PM on Monday 24 Nov 2014 (Local Time) from KMDQ Reporting Station
Clear Clear  
Wind Chill: 55°   Ceiling: Unl
Heat Index: 55°   Visibility: 10mi
Dew Point: 32°   Wind: 8mph
Humidity: 41%   Direction: 260°W
Pressure: 29.89"   Gusts: NA
Location:  34.7869°N, 86.5719°W
Report Text: KMDQ 242215Z AUTO 26007KT 10SM CLR 13/00 A2989 RMK AO2
Loading
Personal Weather Stations






























Interactive Weather Map New forecast layout! Learn more

10-Day Weather Forecast

Advertisements
Track Severe Weather on mobile